Aérodrome :
LOGIN :

S'inscrire | Disclaimer

   EN    FR    IT 

 










Légende :    VFR   VFR Marginal   IFR   IFR Intensif   IFR Très Intensif
Visi : 
Plafond : 
>= 8 km
>= 3000ft
5 à 8 km
1000 à 3000 ft
1500m à 5 km
500 à 1000 ft
800 à 1500m
200 à 500 ft
< 800m
< 200 ft
Symboles :   Orages  Brouillard  Fortes neiges  Fortes précipitations  Vent > 20 kt
SIGMETs :   Divers  Orages  Givrage  Turbulence  Onde Orograph.  Cendres Volcan.






- Altitude de l'aérodrome : 390 ft
- Code IATA : NQY


EGHQ - Newquay

DERNIER METAR :
  • 011850Z AUTO 36011KT 9999 OVC041/// 07/02 Q1022

METARs EXPIRÉS :
  • 011820Z AUTO 36011KT 9999 OVC025/// 07/02 Q1023
  • 011750Z AUTO 36009KT 9999 OVC024/// 07/02 Q1023
  • 011720Z AUTO 35011KT 330V030 9999 FEW028/// BKN043/// 07/02 Q1023
  • 011650Z AUTO 36011KT 330V030 9999 OVC041/// 08/02 Q1023
  • 011620Z 02009KT 9999 BKN040 08/01 Q1023
  • 011550Z 36013KT 340V040 9999 SCT043 08/00 Q1023

TAF TAF EGHQ
Valide du 01 à 18h jusqu'au 02 à 03h UTC


011704Z 0118/0203 01012KT 9999 FEW040



MET'MAP, la Météo Aéronautique d'un coup d'oeil ! - Copyright ORBIFLY Décembre 2007 - Disclaimer

ORBIFLY MET'MAP TEAM :

Programmation & Développement : Alexandra Zaïnal
Sur une idée originale de : Baudouin d'Aumeries
Assistance à la programmation : Marc-Olivier Méhu
Soutien technique & logistique : Manuel Goepfert

Contact : metmap@orbifly.com




SOURCES & CREDITS :

   NOAA